Time;durP1;ratioP1;P1;durP2;ratioP2;P2;SDS_P1;SDS_P2;PMS_P1;PMS_P2;Temp;Humidity;BMP_temperature;BMP_pressure;BME280_temperature;BME280_humidity;BME280_pressure;Samples;Min_cycle;Max_cycle;Signal;HPM_P1;HPM_P2
2022/08/28 00:00:51;;;;;;;21.00;10.38;;;;;;;;;;4405071;32;20653;-82
2022/08/28 00:03:19;;;;;;;20.60;11.32;;;;;;;;;;4405044;32;20264;-83
2022/08/28 00:05:47;;;;;;;25.75;11.05;;;;;;;;;;4404460;32;20599;-82
2022/08/28 00:08:16;;;;;;;24.42;10.27;;;;;;;;;;4404321;32;20603;-82
2022/08/28 00:10:44;;;;;;;16.77;9.23;;;;;;;;;;4404732;32;20639;-83
2022/08/28 00:13:17;;;;;;;14.30;9.32;;;;;;;;;;4404327;32;20210;-82
2022/08/28 00:15:46;;;;;;;20.20;9.65;;;;;;;;;;4403801;32;20230;-82
2022/08/28 00:18:14;;;;;;;17.17;8.13;;;;;;;;;;4405645;32;20610;-82
2022/08/28 00:20:42;;;;;;;11.65;8.65;;;;;;;;;;4405504;32;20383;-82
2022/08/28 00:23:09;;;;;;;15.70;8.27;;;;;;;;;;4405420;32;20508;-83
2022/08/28 00:25:37;;;;;;;14.48;8.98;;;;;;;;;;4405276;32;20578;-83
2022/08/28 00:28:06;;;;;;;21.52;8.50;;;;;;;;;;4405410;32;20210;-83
2022/08/28 00:30:37;;;;;;;17.90;8.23;;;;;;;;;;4405494;32;20555;-82
2022/08/28 00:33:07;;;;;;;16.15;8.48;;;;;;;;;;4405129;32;20551;-82
2022/08/28 00:35:35;;;;;;;14.18;7.97;;;;;;;;;;4404580;32;20578;-82
2022/08/28 00:38:04;;;;;;;17.27;7.18;;;;;;;;;;4404306;32;20618;-82
2022/08/28 00:40:32;;;;;;;18.12;9.30;;;;;;;;;;4404239;32;20544;-82
2022/08/28 00:43:01;;;;;;;14.93;8.60;;;;;;;;;;4407840;32;20579;-82
2022/08/28 00:45:29;;;;;;;18.48;8.55;;;;;;;;;;4407615;32;20707;-82
2022/08/28 00:47:58;;;;;;;18.77;8.77;;;;;;;;;;4407816;32;20540;-82
2022/08/28 00:50:29;;;;;;;19.45;7.62;;;;;;;;;;4407642;32;20272;-82
2022/08/28 00:52:58;;;;;;;12.93;7.55;;;;;;;;;;4407658;32;20535;-82
2022/08/28 00:55:29;;;;;;;13.70;7.37;;;;;;;;;;4408094;32;20543;-82
2022/08/28 00:57:59;;;;;;;19.52;8.18;;;;;;;;;;4408676;32;20275;-82
2022/08/28 01:00:30;;;;;;;14.93;6.75;;;;;;;;;;4408459;32;20638;-82
2022/08/28 01:02:59;;;;;;;15.82;7.07;;;;;;;;;;4407922;32;20356;-82
2022/08/28 01:05:28;;;;;;;12.75;7.07;;;;;;;;;;4408641;32;20586;-82
2022/08/28 01:07:57;;;;;;;12.98;7.70;;;;;;;;;;4408574;32;20528;-82
2022/08/28 01:10:27;;;;;;;17.55;6.80;;;;;;;;;;4408521;32;20725;-82
2022/08/28 01:12:55;;;;;;;11.38;6.97;;;;;;;;;;4409432;32;20261;-82
2022/08/28 01:15:27;;;;;;;15.02;7.82;;;;;;;;;;4412807;32;20631;-83
2022/08/28 01:18:00;;;;;;;13.95;7.47;;;;;;;;;;4410225;32;20613;-82
2022/08/28 01:20:31;;;;;;;18.33;6.90;;;;;;;;;;4417502;32;20229;-82
2022/08/28 01:23:05;;;;;;;20.20;7.43;;;;;;;;;;4418278;32;20224;-82
2022/08/28 01:25:37;;;;;;;25.62;9.07;;;;;;;;;;4421420;32;20223;-85
2022/08/28 01:28:07;;;;;;;21.42;9.90;;;;;;;;;;4415345;32;20547;-82
2022/08/28 01:30:36;;;;;;;13.38;7.95;;;;;;;;;;4407928;32;20619;-82
2022/08/28 01:33:03;;;;;;;26.20;8.77;;;;;;;;;;4408606;32;20512;-82
2022/08/28 01:35:34;;;;;;;12.40;8.25;;;;;;;;;;4407516;32;20263;-81
2022/08/28 01:38:02;;;;;;;17.62;8.70;;;;;;;;;;4407772;32;20295;-82
2022/08/28 01:40:33;;;;;;;10.38;7.43;;;;;;;;;;4406989;32;20756;-82
2022/08/28 01:43:11;;;;;;;14.38;7.18;;;;;;;;;;4407460;32;20555;-82
2022/08/28 01:45:40;;;;;;;16.62;8.35;;;;;;;;;;4406883;32;20338;-82
2022/08/28 01:48:09;;;;;;;15.77;7.65;;;;;;;;;;4407264;32;20515;-83
2022/08/28 01:50:37;;;;;;;9.50;6.70;;;;;;;;;;4407904;32;20246;-82
2022/08/28 01:53:05;;;;;;;15.25;6.97;;;;;;;;;;4407046;32;20547;-83
2022/08/28 01:55:34;;;;;;;24.27;6.80;;;;;;;;;;4407257;32;20642;-82
2022/08/28 01:58:03;;;;;;;14.60;6.78;;;;;;;;;;4407985;32;20615;-82
2022/08/28 02:00:33;;;;;;;13.02;5.87;;;;;;;;;;4407125;32;20579;-82
2022/08/28 02:03:01;;;;;;;15.40;6.62;;;;;;;;;;4407172;32;20202;-83
2022/08/28 02:05:31;;;;;;;12.10;5.78;;;;;;;;;;4407732;32;20598;-82
2022/08/28 02:08:00;;;;;;;12.90;6.75;;;;;;;;;;4406948;32;20728;-82
2022/08/28 02:10:29;;;;;;;14.93;7.03;;;;;;;;;;4407362;32;20571;-82
2022/08/28 02:12:58;;;;;;;13.02;6.85;;;;;;;;;;4407273;32;20250;-86
2022/08/28 02:15:26;;;;;;;13.25;6.90;;;;;;;;;;4407494;32;20248;-85
2022/08/28 02:17:56;;;;;;;21.65;7.57;;;;;;;;;;4407083;32;20538;-86
2022/08/28 02:20:23;;;;;;;14.43;7.47;;;;;;;;;;4407496;32;20255;-85
2022/08/28 02:22:51;;;;;;;18.33;8.32;;;;;;;;;;4406377;32;20554;-82
2022/08/28 02:25:19;;;;;;;22.27;8.90;;;;;;;;;;4406536;32;20566;-82
2022/08/28 02:27:47;;;;;;;19.83;9.10;;;;;;;;;;4407074;32;20681;-82
2022/08/28 02:30:16;;;;;;;17.40;9.27;;;;;;;;;;4407062;32;20233;-82
2022/08/28 02:32:44;;;;;;;15.57;9.40;;;;;;;;;;4407507;32;20625;-85
2022/08/28 02:35:15;;;;;;;18.95;7.78;;;;;;;;;;4406442;32;20252;-82
2022/08/28 02:37:44;;;;;;;19.33;7.72;;;;;;;;;;4405970;32;20527;-82
2022/08/28 02:40:14;;;;;;;13.18;8.00;;;;;;;;;;4405445;32;20688;-82
2022/08/28 02:42:41;;;;;;;21.27;9.38;;;;;;;;;;4405670;32;20546;-81
2022/08/28 02:45:11;;;;;;;14.35;8.25;;;;;;;;;;4406774;32;20550;-84
2022/08/28 02:47:38;;;;;;;14.45;8.75;;;;;;;;;;4406613;32;20650;-81
2022/08/28 02:50:08;;;;;;;18.85;8.15;;;;;;;;;;4406629;32;20654;-81
2022/08/28 02:52:37;;;;;;;12.65;8.70;;;;;;;;;;4406066;32;20580;-81
2022/08/28 02:55:04;;;;;;;13.35;8.07;;;;;;;;;;4406343;32;20255;-82
2022/08/28 02:57:32;;;;;;;13.90;8.20;;;;;;;;;;4407166;32;20550;-84
2022/08/28 03:00:00;;;;;;;12.37;8.40;;;;;;;;;;4406257;32;20670;-81
2022/08/28 03:02:27;;;;;;;19.98;8.65;;;;;;;;;;4406076;32;20541;-82
2022/08/28 03:04:55;;;;;;;21.60;8.60;;;;;;;;;;4405669;32;20544;-81
2022/08/28 03:07:23;;;;;;;16.65;8.18;;;;;;;;;;4406053;32;20648;-82
2022/08/28 03:09:52;;;;;;;19.45;9.52;;;;;;;;;;4406542;32;20724;-82
2022/08/28 03:12:22;;;;;;;21.80;9.45;;;;;;;;;;4405828;32;20285;-81
2022/08/28 03:14:50;;;;;;;14.48;8.80;;;;;;;;;;4406213;32;20692;-80
2022/08/28 03:17:18;;;;;;;10.60;8.00;;;;;;;;;;4406306;32;20595;-82
2022/08/28 03:19:46;;;;;;;15.95;7.90;;;;;;;;;;4406556;32;20309;-81
2022/08/28 03:22:13;;;;;;;22.67;9.15;;;;;;;;;;4406021;32;20246;-81
2022/08/28 03:24:40;;;;;;;17.62;8.75;;;;;;;;;;4406147;32;20364;-82
2022/08/28 03:27:09;;;;;;;16.50;9.13;;;;;;;;;;4406049;32;20523;-82
2022/08/28 03:29:37;;;;;;;24.80;9.70;;;;;;;;;;4406230;32;20658;-81
2022/08/28 03:32:04;;;;;;;12.23;8.38;;;;;;;;;;4406306;32;20535;-81
2022/08/28 03:34:32;;;;;;;21.80;8.90;;;;;;;;;;4406352;32;20676;-81
2022/08/28 03:37:00;;;;;;;9.68;7.57;;;;;;;;;;4405749;32;20597;-80
2022/08/28 03:39:27;;;;;;;15.48;6.80;;;;;;;;;;4405124;32;20681;-82
2022/08/28 03:41:55;;;;;;;11.23;6.50;;;;;;;;;;4404368;32;20630;-81
2022/08/28 03:44:24;;;;;;;12.20;7.25;;;;;;;;;;4408605;32;20588;-82
2022/08/28 03:46:52;;;;;;;12.32;8.38;;;;;;;;;;4408920;32;20253;-81
2022/08/28 03:49:19;;;;;;;20.00;8.38;;;;;;;;;;4406908;32;20654;-82
2022/08/28 03:51:47;;;;;;;14.90;8.10;;;;;;;;;;4406016;32;20285;-82
2022/08/28 03:54:15;;;;;;;15.60;7.90;;;;;;;;;;4405640;32;20687;-83
2022/08/28 03:56:42;;;;;;;14.27;8.02;;;;;;;;;;4405788;32;20225;-82
2022/08/28 03:59:10;;;;;;;13.00;7.85;;;;;;;;;;4404686;32;20743;-83
2022/08/28 04:01:42;;;;;;;19.33;7.57;;;;;;;;;;4405307;32;20371;-87
2022/08/28 04:04:10;;;;;;;15.65;7.20;;;;;;;;;;4405678;32;20700;-82
2022/08/28 04:06:38;;;;;;;10.60;7.30;;;;;;;;;;4404976;32;20649;-81
2022/08/28 04:09:06;;;;;;;19.50;7.90;;;;;;;;;;4404785;32;20634;-81
2022/08/28 04:11:41;;;;;;;16.30;8.05;;;;;;;;;;4405511;32;20265;-82
2022/08/28 04:14:09;;;;;;;14.15;8.38;;;;;;;;;;4405081;32;20744;-83
2022/08/28 04:16:37;;;;;;;16.80;9.40;;;;;;;;;;4408137;32;20614;-83
2022/08/28 04:19:09;;;;;;;13.93;7.75;;;;;;;;;;4407762;32;20619;-84
2022/08/28 04:21:38;;;;;;;16.17;8.30;;;;;;;;;;4407558;32;20639;-82
2022/08/28 04:24:09;;;;;;;13.57;8.35;;;;;;;;;;4408419;32;20672;-81
2022/08/28 04:26:36;;;;;;;20.30;8.93;;;;;;;;;;4408008;32;20577;-83
2022/08/28 04:29:04;;;;;;;15.85;8.77;;;;;;;;;;4408092;32;20324;-83
2022/08/28 04:31:32;;;;;;;14.93;10.02;;;;;;;;;;4407320;32;20504;-83
2022/08/28 04:34:00;;;;;;;21.02;8.88;;;;;;;;;;4407025;32;20597;-83
2022/08/28 04:36:29;;;;;;;17.95;9.23;;;;;;;;;;4406916;32;20656;-82
2022/08/28 04:38:58;;;;;;;25.90;10.40;;;;;;;;;;4406790;32;20668;-83
2022/08/28 04:41:25;;;;;;;13.60;9.30;;;;;;;;;;4406658;32;20562;-82
2022/08/28 04:43:55;;;;;;;20.48;10.70;;;;;;;;;;4406869;32;20607;-83
2022/08/28 04:46:22;;;;;;;20.85;9.85;;;;;;;;;;4407005;32;20558;-83
2022/08/28 04:48:50;;;;;;;18.05;10.27;;;;;;;;;;4407104;32;20609;-83
2022/08/28 04:51:19;;;;;;;24.05;10.20;;;;;;;;;;4406805;32;20496;-82
2022/08/28 04:53:48;;;;;;;16.58;9.73;;;;;;;;;;4406719;32;20563;-83
2022/08/28 04:56:17;;;;;;;16.05;9.05;;;;;;;;;;4407287;32;20593;-83
2022/08/28 04:58:47;;;;;;;18.08;9.93;;;;;;;;;;4406484;32;20570;-83
2022/08/28 05:01:17;;;;;;;23.17;9.55;;;;;;;;;;4406663;32;20345;-83
2022/08/28 05:03:46;;;;;;;22.23;11.27;;;;;;;;;;4406598;32;20249;-83
2022/08/28 05:06:14;;;;;;;20.80;7.93;;;;;;;;;;4407010;32;20539;-83
2022/08/28 05:08:43;;;;;;;18.33;9.15;;;;;;;;;;4406370;32;20534;-81
2022/08/28 05:11:14;;;;;;;23.60;10.07;;;;;;;;;;4407208;32;20633;-81
2022/08/28 05:13:42;;;;;;;16.73;9.25;;;;;;;;;;4407601;32;20590;-81
2022/08/28 05:16:09;;;;;;;27.35;10.52;;;;;;;;;;4406603;32;20575;-82
2022/08/28 05:18:37;;;;;;;19.25;9.45;;;;;;;;;;4406822;32;20560;-82
2022/08/28 05:21:04;;;;;;;20.50;8.30;;;;;;;;;;4406849;32;20551;-82
2022/08/28 05:23:32;;;;;;;23.55;8.55;;;;;;;;;;4406405;32;20699;-82
2022/08/28 05:25:59;;;;;;;17.90;9.18;;;;;;;;;;4406230;32;20547;-82
2022/08/28 05:28:28;;;;;;;20.33;8.68;;;;;;;;;;4406215;32;20512;-82
2022/08/28 05:30:56;;;;;;;15.38;8.00;;;;;;;;;;4406413;32;20532;-82
2022/08/28 05:33:23;;;;;;;15.15;8.25;;;;;;;;;;4406157;32;20299;-83
2022/08/28 05:35:51;;;;;;;16.15;8.57;;;;;;;;;;4406155;32;20600;-82
2022/08/28 05:38:19;;;;;;;13.48;7.47;;;;;;;;;;4406797;32;20646;-82
2022/08/28 05:40:51;;;;;;;37.38;11.00;;;;;;;;;;4405991;32;20615;-80
2022/08/28 05:43:18;;;;;;;24.58;8.82;;;;;;;;;;4406231;32;20587;-83
2022/08/28 05:45:58;;;;;;;18.20;8.63;;;;;;;;;;4405922;32;20598;-82
2022/08/28 05:48:28;;;;;;;20.20;8.52;;;;;;;;;;4406040;32;20524;-82
2022/08/28 05:50:57;;;;;;;15.63;7.72;;;;;;;;;;4406328;32;20520;-82
2022/08/28 05:53:25;;;;;;;17.10;8.90;;;;;;;;;;4406451;32;20597;-82
2022/08/28 05:55:53;;;;;;;29.80;8.95;;;;;;;;;;4406191;32;20241;-83
2022/08/28 05:58:30;;;;;;;18.02;8.65;;;;;;;;;;4410792;32;20539;-82
2022/08/28 06:01:07;;;;;;;16.90;8.73;;;;;;;;;;4408231;32;20684;-82
2022/08/28 06:03:42;;;;;;;23.62;9.00;;;;;;;;;;4415818;32;20170;-82
2022/08/28 06:06:11;;;;;;;14.73;8.50;;;;;;;;;;4416039;32;20556;-86
2022/08/28 06:08:40;;;;;;;15.60;8.50;;;;;;;;;;4416488;32;20210;-88
2022/08/28 06:11:08;;;;;;;21.73;8.93;;;;;;;;;;4407881;32;20198;-80
2022/08/28 06:13:37;;;;;;;24.20;9.45;;;;;;;;;;4406715;32;20581;-81
2022/08/28 06:16:09;;;;;;;17.73;8.75;;;;;;;;;;4406504;32;20578;-84
2022/08/28 06:18:36;;;;;;;15.68;8.90;;;;;;;;;;4407329;32;20615;-81
2022/08/28 06:21:04;;;;;;;18.80;8.93;;;;;;;;;;4407801;32;20580;-82
2022/08/28 06:23:32;;;;;;;16.98;8.45;;;;;;;;;;4407227;32;20344;-82
2022/08/28 06:26:00;;;;;;;21.40;9.35;;;;;;;;;;4407996;32;20554;-81
2022/08/28 06:28:28;;;;;;;20.75;8.95;;;;;;;;;;4407115;32;20616;-82
2022/08/28 06:30:56;;;;;;;14.65;8.20;;;;;;;;;;4407051;32;20399;-82
2022/08/28 06:33:25;;;;;;;21.05;9.02;;;;;;;;;;4406250;32;20547;-82
2022/08/28 06:35:54;;;;;;;26.30;8.65;;;;;;;;;;4405023;32;20283;-81
2022/08/28 06:38:28;;;;;;;12.07;8.80;;;;;;;;;;4404928;32;20658;-82
2022/08/28 06:40:56;;;;;;;17.48;8.38;;;;;;;;;;4405725;32;20600;-82
2022/08/28 06:43:28;;;;;;;20.27;8.75;;;;;;;;;;4405255;32;20555;-85
2022/08/28 06:45:57;;;;;;;16.80;8.75;;;;;;;;;;4404968;32;20549;-81
2022/08/28 06:48:29;;;;;;;25.75;9.35;;;;;;;;;;4405169;32;20210;-82
2022/08/28 06:50:58;;;;;;;19.15;7.97;;;;;;;;;;4405003;32;20596;-82
2022/08/28 06:53:28;;;;;;;13.40;9.77;;;;;;;;;;4404836;32;20566;-82
2022/08/28 06:56:07;;;;;;;16.73;8.88;;;;;;;;;;4404753;32;20556;-82
2022/08/28 06:58:35;;;;;;;20.27;9.02;;;;;;;;;;4404829;32;20570;-81
2022/08/28 07:01:06;;;;;;;21.75;9.73;;;;;;;;;;4405281;32;20635;-90
2022/08/28 07:03:35;;;;;;;15.85;10.13;;;;;;;;;;4404917;32;20359;-80
2022/08/28 07:06:06;;;;;;;13.48;8.38;;;;;;;;;;4405045;32;20205;-81
2022/08/28 07:08:34;;;;;;;25.70;9.38;;;;;;;;;;4405196;32;20590;-84
2022/08/28 07:11:10;;;;;;;18.10;8.75;;;;;;;;;;4405352;32;20576;-87
2022/08/28 07:13:37;;;;;;;24.05;9.20;;;;;;;;;;4405069;32;20288;-88
2022/08/28 07:16:05;;;;;;;23.95;8.90;;;;;;;;;;4405010;32;20511;-85
2022/08/28 07:18:34;;;;;;;21.50;9.27;;;;;;;;;;4405297;32;20300;-85
2022/08/28 07:21:02;;;;;;;19.20;8.77;;;;;;;;;;4405186;32;20681;-85
2022/08/28 07:23:31;;;;;;;16.05;9.82;;;;;;;;;;4404379;32;20551;-85
2022/08/28 07:25:59;;;;;;;19.92;9.07;;;;;;;;;;4404351;32;20326;-85
2022/08/28 07:28:26;;;;;;;25.75;9.20;;;;;;;;;;4404707;32;20296;-85
2022/08/28 07:30:58;;;;;;;17.75;9.05;;;;;;;;;;4404232;32;20745;-85
2022/08/28 07:33:27;;;;;;;15.57;9.60;;;;;;;;;;4404795;32;20645;-85
2022/08/28 07:35:56;;;;;;;23.55;9.98;;;;;;;;;;4404422;32;20514;-86
2022/08/28 07:38:25;;;;;;;16.98;9.55;;;;;;;;;;4404277;32;20535;-86
2022/08/28 07:40:53;;;;;;;19.90;9.48;;;;;;;;;;4404533;32;20689;-85
2022/08/28 07:46:08;;;;;;;13.82;8.82;;;;;;;;;;4404719;32;20235;-83
2022/08/28 07:48:35;;;;;;;18.95;8.15;;;;;;;;;;4404119;32;20550;-83
2022/08/28 07:51:06;;;;;;;20.25;10.05;;;;;;;;;;4403885;32;20665;-82
2022/08/28 07:53:34;;;;;;;18.30;8.07;;;;;;;;;;4404705;32;20607;-84
2022/08/28 07:56:02;;;;;;;18.50;9.40;;;;;;;;;;4404451;32;20564;-84
2022/08/28 07:58:29;;;;;;;23.65;8.63;;;;;;;;;;4404537;32;20566;-85
2022/08/28 08:00:59;;;;;;;21.12;8.27;;;;;;;;;;4405494;32;20218;-85
2022/08/28 08:03:26;;;;;;;19.60;8.57;;;;;;;;;;4404516;32;20542;-84
2022/08/28 08:05:55;;;;;;;16.52;8.80;;;;;;;;;;4404419;32;20616;-85
2022/08/28 08:08:25;;;;;;;16.70;8.57;;;;;;;;;;4404885;32;20681;-84
2022/08/28 08:11:02;;;;;;;16.25;6.97;;;;;;;;;;4404575;32;20614;-83
2022/08/28 08:13:30;;;;;;;13.27;7.30;;;;;;;;;;4404870;32;20557;-88
2022/08/28 08:16:01;;;;;;;20.30;7.07;;;;;;;;;;4406503;32;20571;-87
2022/08/28 08:18:29;;;;;;;20.02;6.80;;;;;;;;;;4406289;32;20241;-82
2022/08/28 08:20:57;;;;;;;11.43;7.05;;;;;;;;;;4404221;32;20265;-82
2022/08/28 08:23:27;;;;;;;9.52;5.97;;;;;;;;;;4407908;32;20607;-90
2022/08/28 08:25:56;;;;;;;12.63;6.80;;;;;;;;;;4404366;32;20599;-82
2022/08/28 08:28:24;;;;;;;21.87;7.43;;;;;;;;;;4404059;32;20607;-89
2022/08/28 08:31:03;;;;;;;15.25;6.90;;;;;;;;;;4404607;32;20716;-85
2022/08/28 08:33:31;;;;;;;15.48;6.85;;;;;;;;;;4405123;32;20287;-89
2022/08/28 08:35:59;;;;;;;24.48;6.87;;;;;;;;;;4404298;32;20267;-87
2022/08/28 08:38:30;;;;;;;15.95;7.72;;;;;;;;;;4404605;32;20618;-85
2022/08/28 08:41:00;;;;;;;14.52;7.62;;;;;;;;;;4404785;32;20631;-86
2022/08/28 08:43:32;;;;;;;21.85;7.72;;;;;;;;;;4405196;32;20637;-84
2022/08/28 08:46:00;;;;;;;16.17;6.78;;;;;;;;;;4405499;32;20598;-88
2022/08/28 08:48:30;;;;;;;16.30;7.00;;;;;;;;;;4404545;32;20599;-88
2022/08/28 08:51:03;;;;;;;20.42;7.40;;;;;;;;;;4404859;32;20605;-85
2022/08/28 08:53:43;;;;;;;9.52;6.70;;;;;;;;;;4404408;32;20245;-84
2022/08/28 08:56:15;;;;;;;12.98;8.98;;;;;;;;;;4404662;32;20562;-86
2022/08/28 08:58:46;;;;;;;20.95;8.15;;;;;;;;;;4403945;32;20565;-84
2022/08/28 09:01:20;;;;;;;11.82;6.87;;;;;;;;;;4403715;32;20516;-85
2022/08/28 09:03:57;;;;;;;17.30;8.85;;;;;;;;;;4407460;32;20555;-88
2022/08/28 09:06:36;;;;;;;10.95;7.80;;;;;;;;;;4408054;32;20300;-86
2022/08/28 09:09:14;;;;;;;16.45;7.15;;;;;;;;;;4408782;32;20244;-87
2022/08/28 09:11:47;;;;;;;22.27;9.45;;;;;;;;;;4409005;32;20600;-83
2022/08/28 09:14:24;;;;;;;9.82;7.50;;;;;;;;;;4407570;32;20280;-83
2022/08/28 09:16:53;;;;;;;18.58;8.57;;;;;;;;;;4407188;32;20558;-82
2022/08/28 09:19:21;;;;;;;15.80;6.97;;;;;;;;;;4407206;32;20324;-81
2022/08/28 09:21:50;;;;;;;20.05;7.15;;;;;;;;;;4407509;32;20666;-83
2022/08/28 09:24:23;;;;;;;18.55;7.22;;;;;;;;;;4407159;32;20657;-84
2022/08/28 09:26:59;;;;;;;11.82;6.53;;;;;;;;;;4406597;32;20232;-84
2022/08/28 09:29:30;;;;;;;19.20;7.78;;;;;;;;;;4406484;32;20605;-83
2022/08/28 09:31:58;;;;;;;21.83;7.35;;;;;;;;;;4407491;32;20680;-85
2022/08/28 09:34:31;;;;;;;17.00;6.60;;;;;;;;;;4406772;32;20256;-86
2022/08/28 09:37:00;;;;;;;18.12;7.32;;;;;;;;;;4407110;32;20619;-84
2022/08/28 09:39:31;;;;;;;18.85;6.72;;;;;;;;;;4406855;32;20548;-83
2022/08/28 09:44:57;;;;;;;21.65;6.70;;;;;;;;;;4406895;32;20279;-84
2022/08/28 09:47:47;;;;;;;17.20;7.45;;;;;;;;;;4407666;32;20531;-84
2022/08/28 09:50:21;;;;;;;18.20;6.87;;;;;;;;;;4406213;32;20303;-86
2022/08/28 09:52:51;;;;;;;11.88;5.97;;;;;;;;;;4406227;32;20264;-83
2022/08/28 09:55:26;;;;;;;17.67;4.65;;;;;;;;;;4406136;32;20237;-83
2022/08/28 09:57:54;;;;;;;16.37;5.95;;;;;;;;;;4405947;32;20283;-83
2022/08/28 10:00:22;;;;;;;12.85;6.28;;;;;;;;;;4405573;32;20256;-83
2022/08/28 10:02:58;;;;;;;16.35;5.80;;;;;;;;;;4405702;32;20601;-84
2022/08/28 10:05:38;;;;;;;22.13;6.87;;;;;;;;;;4405585;32;20583;-83
2022/08/28 10:08:16;;;;;;;16.85;6.35;;;;;;;;;;4406003;32;20554;-84
2022/08/28 10:10:50;;;;;;;18.65;6.35;;;;;;;;;;4405616;32;20716;-83
2022/08/28 10:13:23;;;;;;;11.90;6.35;;;;;;;;;;4405876;32;20269;-83
2022/08/28 10:16:04;;;;;;;13.00;5.55;;;;;;;;;;4405344;32;20643;-83
2022/08/28 10:18:40;;;;;;;17.50;6.03;;;;;;;;;;4405869;32;20612;-83
2022/08/28 10:21:14;;;;;;;13.60;6.87;;;;;;;;;;4405546;32;20607;-84
2022/08/28 10:23:57;;;;;;;12.43;6.68;;;;;;;;;;4405400;32;20613;-84
2022/08/28 10:26:33;;;;;;;12.27;6.55;;;;;;;;;;4405189;32;20625;-84
2022/08/28 10:29:19;;;;;;;18.98;6.37;;;;;;;;;;4405162;32;20299;-84
2022/08/28 10:31:57;;;;;;;14.02;6.12;;;;;;;;;;4405188;32;20516;-84
2022/08/28 10:34:35;;;;;;;22.17;6.82;;;;;;;;;;4405057;32;20524;-84
2022/08/28 10:37:13;;;;;;;20.45;7.00;;;;;;;;;;4405007;32;20534;-84
2022/08/28 10:39:49;;;;;;;11.93;6.53;;;;;;;;;;4405915;32;20289;-83
2022/08/28 10:42:26;;;;;;;14.32;5.45;;;;;;;;;;4411038;32;20587;-83
2022/08/28 10:44:58;;;;;;;15.13;5.65;;;;;;;;;;4408343;32;20763;-83
2022/08/28 10:47:29;;;;;;;12.13;5.50;;;;;;;;;;4415763;32;20194;-85
2022/08/28 10:50:01;;;;;;;11.60;5.35;;;;;;;;;;4413915;32;20232;-86
2022/08/28 10:52:33;;;;;;;21.12;6.68;;;;;;;;;;4408663;32;20563;-85
2022/08/28 10:55:08;;;;;;;18.20;5.35;;;;;;;;;;4406288;32;20606;-85
2022/08/28 10:57:41;;;;;;;20.95;5.43;;;;;;;;;;4405532;32;20624;-84
2022/08/28 11:00:14;;;;;;;15.35;5.62;;;;;;;;;;4405085;32;20605;-83
2022/08/28 11:02:44;;;;;;;20.67;5.32;;;;;;;;;;4405070;32;20550;-84
2022/08/28 11:05:12;;;;;;;13.30;4.55;;;;;;;;;;4404946;32;20646;-83
2022/08/28 11:07:48;;;;;;;23.27;5.32;;;;;;;;;;4405108;32;20272;-84
2022/08/28 11:10:42;;;;;;;10.50;4.50;;;;;;;;;;4404834;32;20689;-84
2022/08/28 11:13:11;;;;;;;20.55;6.30;;;;;;;;;;4405094;32;20603;-84
2022/08/28 11:15:53;;;;;;;9.40;4.78;;;;;;;;;;4404886;32;20293;-84
2022/08/28 11:19:06;;;;;;;17.35;4.95;;;;;;;;;;4404987;32;20197;-86
2022/08/28 11:21:41;;;;;;;11.80;5.60;;;;;;;;;;4404444;32;20681;-84
2022/08/28 11:24:26;;;;;;;16.37;5.50;;;;;;;;;;4404359;32;20605;-84
2022/08/28 11:27:04;;;;;;;12.15;4.72;;;;;;;;;;4405162;32;20418;-84
2022/08/28 11:30:01;;;;;;;17.10;5.90;;;;;;;;;;4404671;32;20562;-84
2022/08/28 11:32:38;;;;;;;17.42;6.03;;;;;;;;;;4404914;32;20534;-84
2022/08/28 11:35:28;;;;;;;17.48;5.00;;;;;;;;;;4404167;32;20680;-83
2022/08/28 11:37:56;;;;;;;11.32;5.10;;;;;;;;;;4404653;32;20556;-84
2022/08/28 11:40:53;;;;;;;15.73;5.53;;;;;;;;;;4404202;32;20657;-83
2022/08/28 11:43:39;;;;;;;14.07;4.55;;;;;;;;;;4404460;32;20614;-84
2022/08/28 11:46:23;;;;;;;13.05;4.75;;;;;;;;;;4404572;32;20563;-84
2022/08/28 11:48:52;;;;;;;13.60;4.53;;;;;;;;;;4404192;32;20301;-84
2022/08/28 11:51:43;;;;;;;10.73;4.05;;;;;;;;;;4404112;32;20277;-84
2022/08/28 11:54:31;;;;;;;17.02;4.35;;;;;;;;;;4404191;32;20635;-84
2022/08/28 11:57:07;;;;;;;7.75;4.55;;;;;;;;;;4404520;32;20571;-84
2022/08/28 12:00:00;;;;;;;12.05;4.22;;;;;;;;;;4404299;32;20550;-84
2022/08/28 12:03:08;;;;;;;10.18;4.60;;;;;;;;;;4389594;32;20323;-84
2022/08/28 12:05:43;;;;;;;16.27;4.80;;;;;;;;;;4404503;32;20617;-83
2022/08/28 12:08:12;;;;;;;10.45;4.50;;;;;;;;;;4404323;32;20629;-85
2022/08/28 12:10:57;;;;;;;18.80;4.95;;;;;;;;;;4403907;32;20607;-84
2022/08/28 12:13:48;;;;;;;9.38;4.72;;;;;;;;;;4404161;32;20273;-82
2022/08/28 12:16:16;;;;;;;12.15;4.28;;;;;;;;;;4403034;32;20566;-83
2022/08/28 12:19:02;;;;;;;9.40;4.20;;;;;;;;;;4403773;32;20738;-83
2022/08/28 12:21:31;;;;;;;14.60;4.20;;;;;;;;;;4403145;32;20697;-83
2022/08/28 12:24:02;;;;;;;19.90;5.18;;;;;;;;;;4403758;32;20623;-83
2022/08/28 12:26:34;;;;;;;11.75;5.05;;;;;;;;;;4403921;32;20610;-83
2022/08/28 12:29:04;;;;;;;13.55;5.68;;;;;;;;;;4403956;32;20316;-86
2022/08/28 12:32:13;;;;;;;21.17;5.32;;;;;;;;;;4404410;32;20611;-86
2022/08/28 12:34:49;;;;;;;13.38;4.72;;;;;;;;;;4403859;32;20551;-86
2022/08/28 12:37:32;;;;;;;15.60;5.37;;;;;;;;;;4406249;32;20563;-83
2022/08/28 12:40:08;;;;;;;10.02;6.50;;;;;;;;;;4406719;32;20273;-83
2022/08/28 12:42:39;;;;;;;15.48;6.87;;;;;;;;;;4406759;32;20626;-83
2022/08/28 12:45:09;;;;;;;11.35;4.97;;;;;;;;;;4406835;32;20663;-83
2022/08/28 12:47:38;;;;;;;14.27;5.25;;;;;;;;;;4406804;32;20523;-83
2022/08/28 12:50:26;;;;;;;22.85;6.43;;;;;;;;;;4406369;32;20647;-83
2022/08/28 12:52:56;;;;;;;14.40;4.62;;;;;;;;;;4406754;32;20575;-83
2022/08/28 12:55:25;;;;;;;7.90;4.37;;;;;;;;;;4406703;32;20639;-84
2022/08/28 12:57:53;;;;;;;21.30;5.57;;;;;;;;;;4406905;32;20245;-82
2022/08/28 13:00:23;;;;;;;14.93;5.18;;;;;;;;;;4406315;32;20607;-83
2022/08/28 13:02:53;;;;;;;10.70;5.65;;;;;;;;;;4406422;32;20308;-84
2022/08/28 13:05:30;;;;;;;18.02;5.75;;;;;;;;;;4406350;32;20500;-83
2022/08/28 13:08:00;;;;;;;20.48;4.65;;;;;;;;;;4406495;32;20550;-83
2022/08/28 13:10:31;;;;;;;8.68;4.37;;;;;;;;;;4406342;32;20260;-83
2022/08/28 13:13:01;;;;;;;19.70;5.68;;;;;;;;;;4406460;32;20611;-83
2022/08/28 13:15:49;;;;;;;13.23;5.12;;;;;;;;;;4406298;32;20336;-84
2022/08/28 13:18:50;;;;;;;9.80;4.03;;;;;;;;;;4406482;32;20508;-86
2022/08/28 13:21:31;;;;;;;9.82;3.83;;;;;;;;;;4378998;32;20560;-86
2022/08/28 13:24:01;;;;;;;15.55;5.50;;;;;;;;;;4406675;32;20618;-86
2022/08/28 13:26:31;;;;;;;23.08;5.62;;;;;;;;;;4406441;32;20504;-83
2022/08/28 13:29:03;;;;;;;7.90;5.12;;;;;;;;;;4406025;32;20519;-84
2022/08/28 13:31:33;;;;;;;19.35;4.95;;;;;;;;;;4406079;32;20577;-83
2022/08/28 13:34:07;;;;;;;11.45;4.35;;;;;;;;;;4406111;32;20672;-83
2022/08/28 13:36:56;;;;;;;15.63;5.30;;;;;;;;;;4406491;32;20662;-83
2022/08/28 13:39:24;;;;;;;12.05;4.45;;;;;;;;;;4406102;32;20604;-83
2022/08/28 13:41:55;;;;;;;7.10;4.65;;;;;;;;;;4406046;32;20554;-83
2022/08/28 13:44:34;;;;;;;13.75;4.28;;;;;;;;;;4406154;32;20535;-83
2022/08/28 13:47:06;;;;;;;9.40;4.10;;;;;;;;;;4405928;32;20339;-83
2022/08/28 13:49:34;;;;;;;16.15;4.75;;;;;;;;;;4405879;32;20649;-84
2022/08/28 13:52:06;;;;;;;16.02;5.00;;;;;;;;;;4405750;32;20484;-83
2022/08/28 13:54:35;;;;;;;11.27;3.75;;;;;;;;;;4405733;32;20672;-83
2022/08/28 13:57:03;;;;;;;12.60;4.53;;;;;;;;;;4406171;32;20587;-85
2022/08/28 13:59:32;;;;;;;14.25;5.22;;;;;;;;;;4405669;32;20578;-84
2022/08/28 14:04:56;;;;;;;7.05;4.62;;;;;;;;;;4386715;32;20249;-83
2022/08/28 14:07:25;;;;;;;9.23;4.15;;;;;;;;;;4405543;32;20523;-83
2022/08/28 14:09:53;;;;;;;11.60;4.85;;;;;;;;;;4405379;32;20359;-83
2022/08/28 14:12:20;;;;;;;12.02;4.55;;;;;;;;;;4405486;32;20268;-83
2022/08/28 14:14:48;;;;;;;9.00;4.12;;;;;;;;;;4405557;32;20626;-83
2022/08/28 14:17:16;;;;;;;14.63;4.22;;;;;;;;;;4405753;32;20583;-84
2022/08/28 14:19:43;;;;;;;15.85;5.07;;;;;;;;;;4405493;32;20275;-83
2022/08/28 14:22:11;;;;;;;11.07;4.22;;;;;;;;;;4405238;32;20610;-84
2022/08/28 14:24:40;;;;;;;11.52;4.43;;;;;;;;;;4405353;32;20582;-83
2022/08/28 14:27:07;;;;;;;7.47;4.53;;;;;;;;;;4405266;32;20621;-83
2022/08/28 14:29:35;;;;;;;10.48;4.72;;;;;;;;;;4405290;32;20557;-83
2022/08/28 14:32:02;;;;;;;16.98;4.90;;;;;;;;;;4405098;32;20584;-83
2022/08/28 14:34:30;;;;;;;11.07;4.00;;;;;;;;;;4405075;32;20726;-83
2022/08/28 14:36:57;;;;;;;16.70;4.50;;;;;;;;;;4405136;32;20273;-83
2022/08/28 14:39:27;;;;;;;10.43;4.53;;;;;;;;;;4405044;32;20638;-83
2022/08/28 14:41:56;;;;;;;11.18;4.65;;;;;;;;;;4405113;32;20542;-84
2022/08/28 14:44:25;;;;;;;16.30;5.12;;;;;;;;;;4405539;32;20579;-87
2022/08/28 14:46:53;;;;;;;12.00;4.43;;;;;;;;;;4405121;32;20543;-83
2022/08/28 14:49:21;;;;;;;9.63;4.95;;;;;;;;;;4404956;32;20536;-83
2022/08/28 14:51:50;;;;;;;9.68;5.90;;;;;;;;;;4405214;32;20539;-83
2022/08/28 14:54:22;;;;;;;8.40;4.93;;;;;;;;;;4404736;32;20657;-83
2022/08/28 14:56:50;;;;;;;15.10;5.03;;;;;;;;;;4405386;32;20611;-84
2022/08/28 14:59:22;;;;;;;12.23;4.93;;;;;;;;;;4404184;32;20589;-83
2022/08/28 15:01:51;;;;;;;8.93;3.78;;;;;;;;;;4405166;32;20673;-83
2022/08/28 15:04:21;;;;;;;8.75;5.20;;;;;;;;;;4404812;32;20590;-84